Kezdőlap
METAR-TAF:

METAR-TAF

Repülőterek :

Kuvaitváros, Kuvait

földrajzi szélesség: 29-13N, földrajzi hosszúság: 047-59E, magasság: 55 m

Jelenlegi meteorológiai megfigyelések

A jelentés 44 perccel ezelõtt készült, 17:00 UTC
Északi szél 5 kt
Hőmérséklet 18°C
Páratartalom 64%
Légköri nyomás 1015 hPa
Látótávolság 10 km, vagy több
felhőtlen 1500 m magasságban, és nincs gomolyfelhõ

METAR: OKBK 251700Z 35005KT CAVOK 18/11 Q1015 NOSIG

Idő: 20:44 (17:44 UTC)

Előrejelzés

A jelentés 12 órával és 59 perccel ezelõtt készült, 04:45 UTC
Az előrejelzés 25-én 06 óra UTC és 26-én 12 óra UTC között érvényes
Észak-északnyugati szél 12 kt
Látótávolság: 2500 m
Párásság
25-én 07 óra UTC és 25-én 09 óra UTC között fokozatosan kialakuló
Látótávolság: 6000 m
Derült ég

TAF: OKBK 250445Z 2506/2612 33012KT 2500 BR NSC BECMG 2507/2509 6000 SKC

Meteorológiai megfigyelések és előrejelzések több, mint 4000 repülőtéren (METAR és TAF jelentéseket).

A térképen piros és sárga pontok jelzik az elérhető meteorológiai állomásokat.

Mozgassa az egeret a pont fölött, hogy megjelenjen az állomás neve.

Azután kattintson az időjárási megfigyelések és előrejelzések megtekintéséhez.

A térkép megváltoztatása: kattintson a fekete keresztel jelölt zöld gombra ráközelítéshez, a vonallal jelölt zöld gombra távolításhoz, vagy a zöld nyilakra a szomszédos térképek eléréséhez.


METAR-TAF: